Latest Weather Observations for Bendigo

IDV60801

Issued at 3:52 pm EDT Saturday 22 February 2020 (issued every 10 minutes, with the page automatically refreshed every 10 minutes)

About weather observations | Map of weather stations | Latest weather observations for VIC | Other Formats
Station Details ID: 081123 Name: BENDIGO AIRPORT Lat: -36.74 Lon: 144.33 Height: 209.17 m
Data from the previous 72 hours. | See also: Recent months at Bendigo
Date/Time
EDT
Temp
°C
App
Temp
°C
Dew
Point
°C
Rel
Hum
%
Delta-T
°C
Wind Press
QNH
hPa
Press
MSL
hPa
Rain since
9am
mm
Dir  Spd
km/h
Gust
km/h
Spd
kts
Gust
kts
22/03:30pm 27.6 25.6 6.9 27 11.1 ESE 7 20 4 11 1019.2 1018.4 0.0
22/03:00pm 26.7 23.5 6.7 28 10.6 ENE 13 20 7 11 1019.6 1018.8 0.0
22/02:30pm 26.8 24.4 6.8 28 10.6 ENE 9 15 5 8 1020.0 1019.2 0.0
22/02:00pm 26.2 23.3 8.2 32 9.7 ESE 13 26 7 14 1020.2 1019.4 0.0
22/01:30pm 24.9 21.8 7.1 32 9.4 E 13 20 7 11 1020.5 1019.7 0.0
22/01:00pm 24.0 21.1 6.7 33 9.0 ENE 11 20 6 11 1020.8 1020.0 0.0
22/12:30pm 23.7 20.7 7.8 36 8.5 SE 13 24 7 13 1021.2 1020.4 0.0
22/12:00pm 22.8 19.8 7.8 38 7.9 ESE 13 19 7 10 1021.7 1020.9 0.0
22/11:30am 21.7 18.0 7.9 41 7.3 SE 17 30 9 16 1022.0 1021.1 0.0
22/11:00am 21.5 17.4 7.7 41 7.2 SE 19 26 10 14 1022.0 1021.1 0.0
22/10:30am 20.0 15.6 6.7 42 6.8 SE 19 28 10 15 1022.0 1021.1 0.0
22/10:00am 19.3 14.7 6.4 43 6.5 SE 20 30 11 16 1021.9 1021.0 0.0
22/09:30am 17.8 13.2 6.7 48 5.6 SSE 20 28 11 15 1021.7 1020.9 0.0
22/09:00am 15.9 11.4 6.3 53 4.7 SE 19 26 10 14 1021.4 1020.6 0.0
22/08:30am 14.2 9.6 6.6 60 3.7 SSE 20 26 11 14 1021.1 1020.3 0.0
22/08:00am 12.7 8.7 6.5 66 3.0 SSE 17 24 9 13 1020.9 1020.1 0.0
22/07:30am 11.4 7.4 6.5 72 2.3 SSE 17 24 9 13 1020.5 1019.7 0.0
22/07:00am 10.4 7.8 6.2 75 2.0 S 9 13 5 7 1020.3 1019.5 0.0
22/06:30am 10.9 8.6 5.7 70 2.4 S 7 9 4 5 1020.1 1019.3 0.0
22/06:00am 11.6 8.2 5.9 68 2.7 SSE 13 20 7 11 1019.9 1019.1 0.0
22/05:30am 12.2 7.6 6.3 67 2.8 SSE 20 28 11 15 1019.7 1018.9 0.0
22/05:00am 12.1 7.2 6.8 70 2.6 SSE 22 33 12 18 1019.5 1018.7 0.0
22/04:30am 12.2 8.3 6.9 70 2.6 SSE 17 26 9 14 1019.6 1018.8 0.0
22/04:00am 12.5 8.0 7.0 69 2.7 SSE 20 30 11 16 1019.8 1019.0 0.0
22/03:30am 12.2 7.6 6.7 69 2.7 SSE 20 30 11 16 1019.9 1019.1 0.0
22/03:00am 11.9 9.1 6.8 71 2.5 S 11 19 6 10 1020.1 1019.3 0.0
22/02:30am 12.1 8.9 7.0 71 2.5 S 13 20 7 11 1020.3 1019.5 0.0
22/02:00am 12.1 9.3 7.0 71 2.5 S 11 17 6 9 1020.4 1019.6 0.0
22/01:30am 12.4 10.0 6.9 69 2.7 S 9 17 5 9 1020.6 1019.8 0.0
22/01:00am 12.9 8.9 6.7 66 3.0 S 17 26 9 14 1020.6 1019.8 0.0
22/12:30am 12.9 9.0 6.9 67 2.9 SSE 17 24 9 13 1020.6 1019.8 0.0
22/12:00am 12.9 9.4 7.1 68 2.8 S 15 22 8 12 1020.6 1019.8 0.0
 
Date/Time
EDT
Temp
°C
App
Temp
°C
Dew
Point
°C
Rel
Hum
%
Delta-T
°C
Wind Press
QNH
hPa
Press
MSL
hPa
Rain since
9am
mm
Dir  Spd
km/h
Gust
km/h
Spd
kts
Gust
kts
21/11:30pm 13.4 9.5 7.2 66 3.0 S 17 24 9 13 1020.5 1019.7 0.0
21/11:00pm 13.5 9.5 6.8 64 3.3 S 17 28 9 15 1020.5 1019.7 0.0
21/10:30pm 13.9 9.3 6.7 62 3.5 S 20 30 11 16 1020.5 1019.7 0.0
21/10:00pm 14.2 9.7 7.0 62 3.5 S 20 26 11 14 1020.6 1019.8 0.0
21/09:30pm 14.7 10.1 6.5 58 4.0 S 20 28 11 15 1020.4 1019.6 0.0
21/09:00pm 15.2 10.8 6.7 57 4.2 S 19 39 10 21 1020.1 1019.3 0.0
21/08:30pm 15.7 11.6 6.4 54 4.6 S 17 26 9 14 1019.6 1018.8 0.0
21/08:00pm 16.4 11.0 6.5 52 4.9 S 24 33 13 18 1019.3 1018.5 0.0
21/07:30pm 17.8 12.5 7.0 49 5.5 S 24 35 13 19 1018.9 1018.1 0.0
21/07:00pm 18.8 13.5 6.9 46 6.0 S 24 35 13 19 1018.5 1017.7 0.0
21/06:30pm 20.0 15.1 6.7 42 6.8 SSE 22 32 12 17 1018.2 1017.3 0.0
21/06:00pm 19.8 15.4 7.5 45 6.3 S 20 35 11 19 1018.2 1017.3 0.0
21/05:30pm 20.1 14.6 7.5 44 6.5 SSE 26 37 14 20 1018.1 1017.2 0.0
21/05:00pm 20.9 15.1 7.9 43 6.8 SSE 28 41 15 22 1018.0 1017.1 0.0
21/04:48pm 20.9 15.0 7.5 42 7.0 S 28 46 15 25 1018.1 1017.2 0.0
21/04:30pm 21.2 14.7 8.1 43 6.9 SSE 32 43 17 23 1018.0 1017.1 0.0
21/04:00pm 21.0 15.2 8.0 43 6.8 SSE 28 46 15 25 1017.9 1017.0 0.0
21/03:59pm 21.9 16.1 8.1 41 7.3 SSE 28 46 15 25 1017.9 1017.0 0.0
21/03:30pm 22.9 17.1 7.8 38 8.0 SSE 28 43 15 23 1018.1 1017.2 0.0
21/03:00pm 21.4 16.6 7.3 40 7.3 S 22 39 12 21 1018.2 1017.3 0.0
21/02:30pm 22.4 17.3 7.8 39 7.7 S 24 35 13 19 1018.4 1017.6 0.0
21/02:00pm 22.7 16.8 7.3 37 8.1 SSE 28 39 15 21 1018.2 1017.3 0.0
21/01:30pm 22.4 17.1 6.6 36 8.2 SE 24 35 13 19 1018.2 1017.3 0.0
21/01:00pm 21.4 17.0 7.3 40 7.3 SSE 20 33 11 18 1018.4 1017.6 0.0
21/12:30pm 20.6 15.6 7.9 44 6.6 SSE 24 39 13 21 1018.7 1017.9 0.0
21/12:00pm 20.3 15.4 8.3 46 6.3 S 24 35 13 19 1018.9 1018.1 0.0
21/11:30am 19.6 14.4 8.9 50 5.7 SSE 26 39 14 21 1018.9 1018.1 0.0
21/11:00am 18.8 14.0 8.7 52 5.3 SSE 24 33 13 18 1018.9 1018.1 0.0
21/10:30am 18.2 13.7 8.5 53 5.1 S 22 32 12 17 1018.8 1018.0 0.0
21/10:00am 17.5 12.2 8.6 56 4.6 SSE 26 43 14 23 1018.6 1017.8 0.0
21/09:30am 16.5 10.9 8.7 60 4.0 SSE 28 39 15 21 1018.3 1017.5 0.0
21/09:00am 15.7 10.9 8.7 63 3.6 SSE 24 32 13 17 1018.1 1017.2 0.0
21/08:30am 14.2 10.1 8.6 69 2.9 S 20 33 11 18 1017.9 1017.0 0.0
21/08:00am 13.1 9.5 8.4 73 2.4 S 17 24 9 13 1017.7 1016.8 0.0
21/07:30am 12.2 8.9 8.1 76 2.0 S 15 20 8 11 1017.3 1016.4 0.0
21/07:00am 12.0 8.3 7.9 76 2.0 S 17 26 9 14 1016.9 1016.0 0.0
21/06:30am 11.9 8.9 7.6 75 2.1 S 13 17 7 9 1016.4 1015.6 0.0
21/06:00am 12.0 8.9 7.3 73 2.3 S 13 19 7 10 1016.2 1015.4 0.0
21/05:30am 12.0 9.2 6.9 71 2.5 S 11 17 6 9 1016.1 1015.3 0.0
21/05:00am 12.1 8.8 6.6 69 2.6 S 13 20 7 11 1016.0 1015.2 0.0
21/04:30am 12.5 9.2 6.5 67 2.9 S 13 20 7 11 1016.2 1015.4 0.0
21/04:00am 12.9 8.5 6.7 66 3.0 S 19 28 10 15 1016.2 1015.4 0.0
21/03:30am 13.4 9.0 7.2 66 3.0 S 20 30 11 16 1016.5 1015.7 0.0
21/03:00am 13.8 9.4 7.6 66 3.1 S 20 32 11 17 1016.7 1015.9 0.0
21/02:30am 13.9 9.7 8.1 68 2.9 S 20 33 11 18 1016.9 1016.0 0.0
21/02:00am 13.8 8.8 8.2 69 2.8 S 24 37 13 20 1016.9 1016.0 0.0
21/01:30am 14.4 10.6 9.2 71 2.7 SSE 19 24 10 13 1016.9 1016.0 0.0
21/01:00am 14.9 11.5 9.3 69 2.9 SSE 17 24 9 13 1017.0 1016.1 0.0
21/12:30am 15.3 10.9 9.0 66 3.3 S 22 35 12 19 1016.9 1016.0 0.0
21/12:00am 15.4 10.6 8.9 65 3.4 SSE 24 33 13 18 1016.6 1015.8 0.0
 
Date/Time
EDT
Temp
°C
App
Temp
°C
Dew
Point
°C
Rel
Hum
%
Delta-T
°C
Wind Press
QNH
hPa
Press
MSL
hPa
Rain since
9am
mm
Dir  Spd
km/h
Gust
km/h
Spd
kts
Gust
kts
20/11:30pm 15.0 12.1 9.6 70 2.8 SSE 15 20 8 11 1016.6 1015.8 0.0
20/11:00pm 14.7 12.1 9.3 70 2.8 SSE 13 19 7 10 1016.6 1015.8 0.0
20/10:30pm 15.2 11.8 9.1 67 3.2 SSE 17 24 9 13 1016.4 1015.6 0.0
20/10:00pm 15.9 12.5 9.1 64 3.5 SSE 17 22 9 12 1016.1 1015.3 0.0
20/09:30pm 16.4 13.2 8.6 60 4.0 SSE 15 20 8 11 1015.7 1014.9 0.0
20/09:00pm 17.0 13.8 8.4 57 4.4 SSE 15 19 8 10 1015.4 1014.6 0.0
20/08:30pm 17.8 14.2 8.4 54 4.9 SSE 17 24 9 13 1014.8 1014.0 0.0
20/08:00pm 18.6 15.0 8.3 51 5.4 SSE 17 24 9 13 1014.5 1013.7 0.0
20/07:30pm 19.5 15.5 8.2 48 5.9 SSE 19 24 10 13 1014.1 1013.3 0.0
20/07:00pm 19.5 15.3 8.2 48 5.9 SSE 20 30 11 16 1013.9 1013.0 0.0
20/06:30pm 20.5 16.9 8.2 45 6.5 SSE 17 22 9 12 1013.8 1012.9 0.0
20/06:00pm 20.9 15.9 8.2 44 6.7 SE 24 32 13 17 1013.9 1013.0 0.0
20/05:30pm 21.8 17.4 7.6 40 7.4 SSE 20 30 11 16 1013.6 1012.7 0.0
20/05:00pm 22.0 16.7 7.0 38 7.8 SSE 24 37 13 20 1013.5 1012.6 0.0
20/04:30pm 21.8 17.4 7.2 39 7.6 SE 20 30 11 16 1013.6 1012.7 0.0
20/04:00pm 23.0 19.2 7.5 37 8.2 SSE 17 32 9 17 1013.7 1012.8 0.0
20/03:30pm 21.7 17.3 6.4 37 7.8 SSE 19 28 10 15 1014.2 1013.4 0.0
20/03:00pm 21.7 17.7 6.8 38 7.7 SE 17 26 9 14 1014.6 1013.8 0.0
20/02:30pm 21.0 17.1 7.3 41 7.1 SE 17 30 9 16 1014.9 1014.1 0.0
20/02:00pm 20.9 16.6 6.8 40 7.2 SE 19 26 10 14 1015.1 1014.3 0.0
20/01:30pm 20.3 16.1 5.9 39 7.2 S 17 32 9 17 1015.1 1014.3 0.0
20/01:00pm 20.7 16.2 5.9 38 7.5 SSE 19 30 10 16 1015.3 1014.5 0.0
20/12:30pm 19.4 15.2 5.8 41 6.8 S 17 28 9 15 1015.6 1014.8 0.0
20/12:00pm 19.3 14.7 5.7 41 6.8 SSE 19 26 10 14 1015.9 1015.1 0.0
20/11:30am 17.5 13.1 4.8 43 6.1 SSE 17 26 9 14 1016.3 1015.5 0.0
20/11:00am 16.7 12.9 5.9 49 5.3 SSW 15 20 8 11 1016.3 1015.5 0.0
20/10:30am 17.4 13.8 6.6 49 5.4 SSW 15 22 8 12 1016.1 1015.3 0.0
20/10:00am 15.4 11.3 6.2 54 4.5 SSW 17 24 9 13 1016.1 1015.3 0.0
20/09:30am 14.9 10.2 6.0 55 4.3 S 20 33 11 18 1015.8 1015.0 0.0
20/09:00am 14.1 9.5 5.7 57 4.0 S 19 32 10 17 1015.5 1014.7 0.0
20/08:30am 14.0 9.5 6.1 59 3.8 S 19 28 10 15 1014.9 1014.1 0.0
20/08:00am 13.7 10.0 6.3 61 3.6 S 15 26 8 14 1014.7 1013.9 0.0
20/07:30am 13.7 9.7 6.8 63 3.4 S 17 24 9 13 1014.3 1013.5 0.0
20/07:00am 13.6 10.0 6.9 64 3.3 S 15 22 8 12 1013.7 1012.8 0.0
20/06:30am 13.3 10.6 7.3 67 3.0 S 11 19 6 10 1013.2 1012.3 0.0
20/06:00am 13.1 10.4 7.3 68 2.9 SSW 11 15 6 8 1012.9 1012.0 0.0
20/05:30am 13.0 9.5 7.2 68 2.8 SSW 15 19 8 10 1012.9 1012.0 0.0
20/05:00am 13.0 9.1 7.2 68 2.8 SSW 17 22 9 12 1013.1 1012.2 0.0
20/04:30am 12.9 9.8 7.4 69 2.7 SW 13 17 7 9 1013.4 1012.5 0.0
20/04:00am 12.6 9.5 7.3 70 2.6 SW 13 20 7 11 1013.2 1012.3 0.0
20/03:30am 12.2 9.4 7.1 71 2.5 SSW 11 19 6 10 1013.3 1012.4 0.0
20/03:00am 12.5 8.7 7.4 71 2.5 SW 17 22 9 12 1013.4 1012.5 0.0
20/02:30am 12.7 8.6 7.8 72 2.4 SW 19 28 10 15 1013.7 1012.8 0.0
20/02:00am 12.8 9.1 7.9 72 2.4 SW 17 22 9 12 1013.8 1012.9 0.0
20/01:30am 12.5 10.0 8.0 74 2.2 WSW 11 15 6 8 1014.1 1013.3 0.0
20/01:00am 13.2 10.2 7.6 69 2.8 SSW 13 17 7 9 1014.2 1013.4 0.0
20/12:30am 13.7 10.3 7.5 66 3.1 SSW 15 22 8 12 1014.0 1013.1 0.0
20/12:00am 14.8 10.6 7.6 62 3.6 SSW 19 24 10 13 1014.0 1013.1 0.0
 
Date/Time
EDT
Temp
°C
App
Temp
°C
Dew
Point
°C
Rel
Hum
%
Delta-T
°C
Wind Press
QNH
hPa
Press
MSL
hPa
Rain since
9am
mm
Dir  Spd
km/h
Gust
km/h
Spd
kts
Gust
kts
19/11:30pm 15.3 11.7 8.3 63 3.6 SW 17 26 9 14 1014.2 1013.4 0.0
19/11:00pm 14.7 11.8 8.2 65 3.3 SSW 13 19 7 10 1014.1 1013.3 0.0
19/10:30pm 15.3 11.7 8.3 63 3.6 SSW 17 22 9 12 1013.9 1013.0 0.0
19/10:00pm 15.6 11.4 8.4 62 3.7 S 20 30 11 16 1013.8 1012.9 0.0
19/09:30pm 16.4 12.4 8.9 61 3.9 S 20 33 11 18 1013.5 1012.6 0.0
19/09:00pm 17.1 13.6 8.8 58 4.3 SSW 17 30 9 16 1013.2 1012.3 0.0
19/08:30pm 17.4 12.8 8.3 55 4.7 SSW 22 33 12 18 1013.0 1012.1 0.0
19/08:00pm 17.8 13.6 8.4 54 4.9 SSW 20 41 11 22 1012.7 1011.8 0.0
19/07:48pm 17.9 12.2 8.5 54 4.9 SSW 28 46 15 25 1012.4 1011.5 0.0
19/07:30pm 18.4 14.1 9.5 56 4.7 SSW 22 37 12 20 1012.1 1011.2 0.0
19/07:00pm 18.2 13.3 8.5 53 5.1 SSW 24 43 13 23 1012.0 1011.1 0.0
19/06:30pm 19.3 15.1 8.3 49 5.8 S 20 30 11 16 1011.4 1010.6 0.0
19/06:00pm 19.3 15.1 8.3 49 5.8 SSW 20 39 11 21 1011.3 1010.5 0.0
19/05:30pm 20.2 15.1 7.6 44 6.5 S 24 33 13 18 1011.0 1010.2 0.0
19/05:00pm 20.4 14.7 6.7 41 7.0 SSW 26 41 14 22 1010.8 1010.0 0.0
19/04:30pm 21.1 15.0 6.6 39 7.4 SSW 28 41 15 22 1010.9 1010.1 0.0
19/04:00pm 20.9 14.7 6.1 38 7.5 SSW 28 43 15 23 1010.9 1010.1 0.0

Other formats

Comma delimited format used in spreadsheet applications
http://www.bom.gov.au/fwo/IDV60801/IDV60801.94855.axf

JavaScript Object Notation format (JSON) in row-major order
http://www.bom.gov.au/fwo/IDV60801/IDV60801.94855.json

Data quality

Most of these data are generated automatically and are frequently updated. Quality checks on data are not normally performed. It is possible for incorrect values to appear. Refer to information at About Latest Weather Observations and please check the disclaimer before using these data.